Home > Products > Valid Products > TAF

000
FTUS45 KCYS 240904 AAC
TAFCYS
TAF AMD
KCYS 240904Z 2409/2506 33006KT P6SM SCT008 OVC050
      TEMPO 2409/2413 1SM BR BKN003
     FM241500 23005KT P6SM BKN025
     FM241800 25015G25KT P6SM -RA VCTS BKN025CB BKN050=



000
FTUS45 KCYS 240904 AAC
TAFCYS
TAF AMD
KCYS 240904Z 2409/2506 33006KT P6SM SCT008 OVC050
      TEMPO 2409/2413 1SM BR BKN003
     FM241500 23005KT P6SM BKN025
     FM241800 25015G25KT P6SM -RA VCTS BKN025CB BKN050=



000
FTUS45 KCYS 240903 AAB
TAFRWL
TAF AMD
KRWL 240903Z 2409/2506 VRB06KT P6SM -RASN SCT008 OVC025
     FM241200 30014G20KT 4SM -RA BR OVC010
     FM241800 32014KT 6SM -SHRA VCTS BKN025CB BKN050=



000
FTUS45 KCYS 240903 AAB
TAFRWL
TAF AMD
KRWL 240903Z 2409/2506 VRB06KT P6SM -RASN SCT008 OVC025
     FM241200 30014G20KT 4SM -RA BR OVC010
     FM241800 32014KT 6SM -SHRA VCTS BKN025CB BKN050=



000
FTUS45 KCYS 240827 AAA
TAFRWL
TAF AMD
KRWL 240827Z 2408/2506 VRB06KT 4SM -RASN BR SCT008 BKN015 OVC025
      TEMPO 2408/2410 1SM -SN BR BKN008
     FM241200 30014G20KT 4SM -RA BR OVC010
     FM241800 32014KT 6SM -SHRA VCTS BKN025CB BKN050=



000
FTUS45 KCYS 240827 AAA
TAFRWL
TAF AMD
KRWL 240827Z 2408/2506 VRB06KT 4SM -RASN BR SCT008 BKN015 OVC025
      TEMPO 2408/2410 1SM -SN BR BKN008
     FM241200 30014G20KT 4SM -RA BR OVC010
     FM241800 32014KT 6SM -SHRA VCTS BKN025CB BKN050=



000
FTUS45 KCYS 240536
TAFCYS
TAF
KCYS 240536Z 2406/2506 VRB06KT P6SM BKN015 OVC050
      TEMPO 2409/2413 2SM BR OVC003
     FM241500 23005KT P6SM BKN025
     FM241800 25015G25KT P6SM -RA VCTS BKN025CB BKN050=



000
FTUS45 KCYS 240536
TAFLAR
TAF
KLAR 240536Z 2406/2506 34012KT P6SM -RA BKN020 OVC035
      TEMPO 2406/2409 3SM -RA BR OVC015
     FM240900 25010KT P6SM OVC025
     FM241700 17012KT P6SM -SHRA VCTS BKN025CB BKN050=



000
FTUS45 KCYS 240536
TAFRWL
TAF
KRWL 240536Z 2406/2506 34012KT 4SM -RA BR BKN015 OVC025
     FM241200 30014G20KT 4SM -RA BR OVC010
     FM241800 32014KT 6SM -SHRA VCTS BKN025CB BKN050=



000
FTUS45 KCYS 240536
TAFRWL
TAF
KRWL 240536Z 2406/2506 34012KT 4SM -RA BR BKN015 OVC025
     FM241200 30014G20KT 4SM -RA BR OVC010
     FM241800 32014KT 6SM -SHRA VCTS BKN025CB BKN050=



000
FTUS45 KCYS 240536
TAFCYS
TAF
KCYS 240536Z 2406/2506 VRB06KT P6SM BKN015 OVC050
      TEMPO 2409/2413 2SM BR OVC003
     FM241500 23005KT P6SM BKN025
     FM241800 25015G25KT P6SM -RA VCTS BKN025CB BKN050=



000
FTUS45 KCYS 240536
TAFLAR
TAF
KLAR 240536Z 2406/2506 34012KT P6SM -RA BKN020 OVC035
      TEMPO 2406/2409 3SM -RA BR OVC015
     FM240900 25010KT P6SM OVC025
     FM241700 17012KT P6SM -SHRA VCTS BKN025CB BKN050=



000
FTUS45 KCYS 240406 AAA
TAFLAR
TAF AMD
KLAR 240406Z 2404/2424 34012KT P6SM -RA OVC035
      TEMPO 2406/2409 3SM -SHRA OVC025
     FM240900 25010KT 4SM BR OVC015
     FM241700 17012KT 4SM -TSRA BKN015CB=



000
FTUS45 KCYS 240406 AAA
TAFLAR
TAF AMD
KLAR 240406Z 2404/2424 34012KT P6SM -RA OVC035
      TEMPO 2406/2409 3SM -SHRA OVC025
     FM240900 25010KT 4SM BR OVC015
     FM241700 17012KT 4SM -TSRA BKN015CB=



000
FTUS45 KCYS 240406 AAA
TAFLAR
TAF AMD
KLAR 240406Z 2404/2424 34012KT P6SM -RA OVC035
      TEMPO 2406/2409 3SM -SHRA OVC025
     FM240900 25010KT 4SM BR OVC015
     FM241700 17012KT 4SM -TSRA BKN015CB=



000
FTUS45 KCYS 240358 AAB
TAFCYS
TAF AMD
KCYS 240358Z 2404/2424 13005KT 6SM BR OVC009
     FM240600 16007KT 3SM BR OVC005
      TEMPO 2407/2410 1/2SM DZ FG OVC001
     FM241500 23005KT P6SM BKN050
     FM241700 25015G25KT P6SM VCTS BKN050CB=



000
FTUS45 KCYS 240358 AAB
TAFCYS
TAF AMD
KCYS 240358Z 2404/2424 13005KT 6SM BR OVC009
     FM240600 16007KT 3SM BR OVC005
      TEMPO 2407/2410 1/2SM DZ FG OVC001
     FM241500 23005KT P6SM BKN050
     FM241700 25015G25KT P6SM VCTS BKN050CB=



000
FTUS45 KCYS 240242 AAA
TAFCYS
TAF AMD
KCYS 240242Z 2403/2424 07010KT 5SM BR OVC009
     FM240430 06007KT 2SM -DZ BR OVC005
      TEMPO 2405/2409 1/2SM DZ FG OVC001
     FM241500 23005KT P6SM BKN050
     FM241700 25015G25KT P6SM VCTS BKN050CB=



000
FTUS45 KCYS 240242 AAA
TAFCYS
TAF AMD
KCYS 240242Z 2403/2424 07010KT 5SM BR OVC009
     FM240430 06007KT 2SM -DZ BR OVC005
      TEMPO 2405/2409 1/2SM DZ FG OVC001
     FM241500 23005KT P6SM BKN050
     FM241700 25015G25KT P6SM VCTS BKN050CB=



000
FTUS45 KCYS 232356
TAFRWL
TAF
KRWL 232356Z 2400/2424 05006KT P6SM -TSRA SCT025CB BKN040
      TEMPO 2401/2403 3SM -TSRA BKN025CB
     FM240400 33015KT 4SM BR BKN015
     FM241200 28020G30KT 3SM -RA BR OVC010
     FM241600 32014KT 4SM -SHRA BKN015=



000
FTUS45 KCYS 232356
TAFCYS
TAF
KCYS 232356Z 2400/2424 21014KT 3SM -TSRA BR SCT015CB OVC035
     FM240100 14014KT P6SM -TSRA BKN035CB OVC080
     FM240300 13015KT 5SM BR OVC025
     FM240600 17006KT 3SM BR BKN050
     FM241500 23005KT P6SM BKN050
     FM241700 25015G25KT P6SM VCTS BKN050CB=



000
FTUS45 KCYS 232356
TAFLAR
TAF
KLAR 232356Z 2400/2424 14013KT P6SM VCTS SCT080CB
     FM240200 23010KT P6SM SCT050
     FM240900 25010KT 4SM BR OVC015
     FM241700 17012KT 4SM -TSRA BKN015CB=



000
FTUS45 KCYS 232356
TAFLAR
TAF
KLAR 232356Z 2400/2424 14013KT P6SM VCTS SCT080CB
     FM240200 23010KT P6SM SCT050
     FM240900 25010KT 4SM BR OVC015
     FM241700 17012KT 4SM -TSRA BKN015CB=



000
FTUS45 KCYS 232356
TAFRWL
TAF
KRWL 232356Z 2400/2424 05006KT P6SM -TSRA SCT025CB BKN040
      TEMPO 2401/2403 3SM -TSRA BKN025CB
     FM240400 33015KT 4SM BR BKN015
     FM241200 28020G30KT 3SM -RA BR OVC010
     FM241600 32014KT 4SM -SHRA BKN015=



000
FTUS45 KCYS 232356
TAFCYS
TAF
KCYS 232356Z 2400/2424 21014KT 3SM -TSRA BR SCT015CB OVC035
     FM240100 14014KT P6SM -TSRA BKN035CB OVC080
     FM240300 13015KT 5SM BR OVC025
     FM240600 17006KT 3SM BR BKN050
     FM241500 23005KT P6SM BKN050
     FM241700 25015G25KT P6SM VCTS BKN050CB=



000
FTUS45 KCYS 232225 AAB
TAFCYS
TAF AMD
KCYS 232225Z 2322/2418 15012KT P6SM VCTS SCT015CB BKN035
      TEMPO 2322/2401 VRB20G30KT 1SM -TSRA OVC015CB
     FM240200 15007KT 4SM -RA BR OVC004
     FM240900 27008KT P6SM SCT007 BKN015
     FM241200 23005KT P6SM BKN050=



000
FTUS45 KCYS 232225 AAB
TAFCYS
TAF AMD
KCYS 232225Z 2322/2418 15012KT P6SM VCTS SCT015CB BKN035
      TEMPO 2322/2401 VRB20G30KT 1SM -TSRA OVC015CB
     FM240200 15007KT 4SM -RA BR OVC004
     FM240900 27008KT P6SM SCT007 BKN015
     FM241200 23005KT P6SM BKN050=



000
FTUS45 KCYS 231815 CCA
TAFRWL
TAF COR
KRWL 231815Z 2318/2418 10008KT P6SM VCTS SCT025 BKN100CB
      TEMPO 2318/2322 2SM TSRA BKN025CB
     FM240600 33015KT 4SM -RA BR SCT007 OVC015
     FM241200 28020G30KT 4SM -RA BR OVC007=



000
FTUS45 KCYS 231813 CCA
TAFLAR
TAF COR
KLAR 231813Z 2318/2418 15013KT P6SM VCTS SCT080CB
      TEMPO 2318/2322 4SM -TSRA BKN035CB
     FM240200 18005KT 4SM -RA BR OVC015
     FM241200 22008KT 6SM -SHRA OVC025=



000
FTUS45 KCYS 231813 CCA
TAFLAR
TAF COR
KLAR 231813Z 2318/2418 15013KT P6SM VCTS SCT080CB
      TEMPO 2318/2322 4SM -TSRA BKN035CB
     FM240200 18005KT 4SM -RA BR OVC015
     FM241200 22008KT 6SM -SHRA OVC025=



000
FTUS45 KCYS 231813 CCA
TAFLAR
TAF COR
KLAR 231813Z 2318/2418 15013KT P6SM VCTS SCT080CB
      TEMPO 2318/2322 4SM -TSRA BKN035CB
     FM240200 18005KT 4SM -RA BR OVC015
     FM241200 22008KT 6SM -SHRA OVC025=



000
FTUS45 KCYS 231813 CCA
TAFLAR
TAF COR
KLAR 231813Z 2318/2418 15013KT P6SM VCTS SCT080CB
      TEMPO 2318/2322 4SM -TSRA BKN035CB
     FM240200 18005KT 4SM -RA BR OVC015
     FM241200 22008KT 6SM -SHRA OVC025=



000
FTUS45 KCYS 231811 CCA
TAFCYS
TAF COR
KCYS 231811Z 2318/2418 15012KT P6SM VCTS SCT015 BKN035CB
      TEMPO 2320/2324 2SM -TSRA OVC015CB
     FM240200 15007KT 4SM -RA BR OVC004
     FM240900 27008KT P6SM SCT007 BKN015
     FM241200 23005KT P6SM BKN050=



000
FTUS45 KCYS 231811 CCA
TAFCYS
TAF COR
KCYS 231811Z 2318/2418 15012KT P6SM VCTS SCT015 BKN035CB
      TEMPO 2320/2324 2SM -TSRA OVC015CB
     FM240200 15007KT 4SM -RA BR OVC004
     FM240900 27008KT P6SM SCT007 BKN015
     FM241200 23005KT P6SM BKN050=



000
FTUS45 KCYS 231731
TAFRWL
TAF
KRWL 231731Z 2318/2418 23010KT P6SM VCTS SCT025 BKN040CB
      TEMPO 2318/2322 2SM -TSRA OVC015CB
     FM240600 33015KT 4SM -RA BR SCT007 OVC015
     FM241200 28020G30KT 4SM -RA BR OVC007=



000
FTUS45 KCYS 231731
TAFRWL
TAF
KRWL 231731Z 2318/2418 23010KT P6SM VCTS SCT025 BKN040CB
      TEMPO 2318/2322 2SM -TSRA OVC015CB
     FM240600 33015KT 4SM -RA BR SCT007 OVC015
     FM241200 28020G30KT 4SM -RA BR OVC007=



000
FTUS45 KCYS 231731
TAFLAR
TAF
KLAR 231731Z 2318/2418 15013KT P6SM VCTS SCT015 BKN025CB
      TEMPO 2318/2322 2SM -TSRA OVC015CB
     FM240200 18005KT 4SM -RA BR OVC015
     FM241200 22008KT 6SM -SHRA OVC025=



000
FTUS45 KCYS 231731
TAFCYS
TAF
KCYS 231731Z 2318/2418 13012KT P6SM VCTS SCT015 BKN025CB
      TEMPO 2320/2324 2SM -TSRA OVC015CB
     FM240200 05007KT 4SM -RA BR OVC004
     FM240900 27008KT P6SM SCT007 BKN015
     FM241200 23005KT P6SM BKN050=



000
FTUS45 KCYS 231731
TAFCYS
TAF
KCYS 231731Z 2318/2418 13012KT P6SM VCTS SCT015 BKN025CB
      TEMPO 2320/2324 2SM -TSRA OVC015CB
     FM240200 05007KT 4SM -RA BR OVC004
     FM240900 27008KT P6SM SCT007 BKN015
     FM241200 23005KT P6SM BKN050=



000
FTUS45 KCYS 231731
TAFLAR
TAF
KLAR 231731Z 2318/2418 15013KT P6SM VCTS SCT015 BKN025CB
      TEMPO 2318/2322 2SM -TSRA OVC015CB
     FM240200 18005KT 4SM -RA BR OVC015
     FM241200 22008KT 6SM -SHRA OVC025=



000
FTUS45 KCYS 231235 CCB
TAFCYS
TAF COR
KCYS 231235Z 2313/2412 22007KT P6SM OVC015
      TEMPO 2313/2316 5SM BR
     FM231600 14011KT P6SM BKN015
     FM231800 12012G18KT P6SM VCTS BKN015 BKN025CB
     FM240200 03007KT 4SM -RA BR BKN007 OVC015=



000
FTUS45 KCYS 231235 CCB
TAFCYS
TAF COR
KCYS 231235Z 2313/2412 22007KT P6SM OVC015
      TEMPO 2313/2316 5SM BR
     FM231600 14011KT P6SM BKN015
     FM231800 12012G18KT P6SM VCTS BKN015 BKN025CB
     FM240200 03007KT 4SM -RA BR BKN007 OVC015=



000
FTUS45 KCYS 231235 CCB
TAFCYS
TAF COR
KCYS 231235Z 2313/2412 22007KT P6SM OVC015
      TEMPO 2313/2316 5SM BR
     FM231600 14011KT P6SM BKN015
     FM231800 12012G18KT P6SM VCTS BKN015 BKN025CB
     FM240200 03007KT 4SM -RA BR BKN007 OVC015=



000
FTUS45 KCYS 231235 CCB
TAFCYS
TAF COR
KCYS 231235Z 2313/2412 22007KT P6SM OVC015
      TEMPO 2313/2316 5SM BR
     FM231600 14011KT P6SM BKN015
     FM231800 12012G18KT P6SM VCTS BKN015 BKN025CB
     FM240200 03007KT 4SM -RA BR BKN007 OVC015=



000
FTUS45 KCYS 231227 AAA
TAFCYS
TAF AMD
KCYS 231227Z 2312/2412 22007KT 3SM BR SCT002 OVC015
      TEMPO 2312/2314 1SM -DZ BR OVC002
     FM231400 16010KT 5SM BR BKN003 OVC007
     FM231600 14011KT P6SM OVC015
     FM231800 12012G18KT P6SM VCTS BKN015 BKN025CB
     FM240200 03007KT 4SM -RA BR BKN007 OVC015=



000
FTUS45 KCYS 231227 AAA
TAFCYS
TAF AMD
KCYS 231227Z 2312/2412 22007KT 3SM BR SCT002 OVC015
      TEMPO 2312/2314 1SM -DZ BR OVC002
     FM231400 16010KT 5SM BR BKN003 OVC007
     FM231600 14011KT P6SM OVC015
     FM231800 12012G18KT P6SM VCTS BKN015 BKN025CB
     FM240200 03007KT 4SM -RA BR BKN007 OVC015=



000
FTUS45 KCYS 231227 AAA
TAFCYS
TAF AMD
KCYS 231227Z 2312/2412 22007KT 3SM BR SCT002 OVC015
      TEMPO 2312/2314 1SM -DZ BR OVC002
     FM231400 16010KT 5SM BR BKN003 OVC007
     FM231600 14011KT P6SM OVC015
     FM231800 12012G18KT P6SM VCTS BKN015 BKN025CB
     FM240200 03007KT 4SM -RA BR BKN007 OVC015=



000
FTUS45 KCYS 231227 AAA
TAFCYS
TAF AMD
KCYS 231227Z 2312/2412 22007KT 3SM BR SCT002 OVC015
      TEMPO 2312/2314 1SM -DZ BR OVC002
     FM231400 16010KT 5SM BR BKN003 OVC007
     FM231600 14011KT P6SM OVC015
     FM231800 12012G18KT P6SM VCTS BKN015 BKN025CB
     FM240200 03007KT 4SM -RA BR BKN007 OVC015=



000
FTUS45 KCYS 231140
TAFCYS
TAF
KCYS 231140Z 2312/2412 17010KT 3SM BR BKN002 OVC005
      TEMPO 2312/2314 1/2SM -DZ FG VV001
     FM231400 16010KT 5SM BR BKN003 OVC007
     FM231600 14011KT P6SM OVC015
     FM231800 12012G18KT P6SM VCTS BKN015 BKN025CB
     FM240200 03007KT 4SM -RA BR BKN007 OVC015=



000
FTUS45 KCYS 231140
TAFLAR
TAF
KLAR 231140Z 2312/2412 17008KT P6SM BKN100
     FM231500 16010KT P6SM BKN050 BKN100
     FM231800 14012KT P6SM VCTS BKN025CB BKN050
     FM240300 04008KT 5SM -RA BR BKN015 OVC025=



000
FTUS45 KCYS 231140
TAFRWL
TAF
KRWL 231140Z 2312/2412 VRB06KT P6SM BKN100
     FM231800 28010KT P6SM VCTS BKN050CB BKN100
     FM240100 01011KT P6SM VCSH OVC050
     FM240600 34015KT 5SM -RA BR BKN015 OVC025=



000
FTUS45 KCYS 231140
TAFCYS
TAF
KCYS 231140Z 2312/2412 17010KT 3SM BR BKN002 OVC005
      TEMPO 2312/2314 1/2SM -DZ FG VV001
     FM231400 16010KT 5SM BR BKN003 OVC007
     FM231600 14011KT P6SM OVC015
     FM231800 12012G18KT P6SM VCTS BKN015 BKN025CB
     FM240200 03007KT 4SM -RA BR BKN007 OVC015=



000
FTUS45 KCYS 231140
TAFLAR
TAF
KLAR 231140Z 2312/2412 17008KT P6SM BKN100
     FM231500 16010KT P6SM BKN050 BKN100
     FM231800 14012KT P6SM VCTS BKN025CB BKN050
     FM240300 04008KT 5SM -RA BR BKN015 OVC025=



000
FTUS45 KCYS 231140
TAFRWL
TAF
KRWL 231140Z 2312/2412 VRB06KT P6SM BKN100
     FM231800 28010KT P6SM VCTS BKN050CB BKN100
     FM240100 01011KT P6SM VCSH OVC050
     FM240600 34015KT 5SM -RA BR BKN015 OVC025=



000
FTUS45 KCYS 231140
TAFLAR
TAF
KLAR 231140Z 2312/2412 17008KT P6SM BKN100
     FM231500 16010KT P6SM BKN050 BKN100
     FM231800 14012KT P6SM VCTS BKN025CB BKN050
     FM240300 04008KT 5SM -RA BR BKN015 OVC025=



000
FTUS45 KCYS 231140
TAFCYS
TAF
KCYS 231140Z 2312/2412 17010KT 3SM BR BKN002 OVC005
      TEMPO 2312/2314 1/2SM -DZ FG VV001
     FM231400 16010KT 5SM BR BKN003 OVC007
     FM231600 14011KT P6SM OVC015
     FM231800 12012G18KT P6SM VCTS BKN015 BKN025CB
     FM240200 03007KT 4SM -RA BR BKN007 OVC015=



000
FTUS45 KCYS 231140
TAFRWL
TAF
KRWL 231140Z 2312/2412 VRB06KT P6SM BKN100
     FM231800 28010KT P6SM VCTS BKN050CB BKN100
     FM240100 01011KT P6SM VCSH OVC050
     FM240600 34015KT 5SM -RA BR BKN015 OVC025=



000
FTUS45 KCYS 231140
TAFRWL
TAF
KRWL 231140Z 2312/2412 VRB06KT P6SM BKN100
     FM231800 28010KT P6SM VCTS BKN050CB BKN100
     FM240100 01011KT P6SM VCSH OVC050
     FM240600 34015KT 5SM -RA BR BKN015 OVC025=



000
FTUS45 KCYS 231140
TAFLAR
TAF
KLAR 231140Z 2312/2412 17008KT P6SM BKN100
     FM231500 16010KT P6SM BKN050 BKN100
     FM231800 14012KT P6SM VCTS BKN025CB BKN050
     FM240300 04008KT 5SM -RA BR BKN015 OVC025=



000
FTUS45 KCYS 231140
TAFCYS
TAF
KCYS 231140Z 2312/2412 17010KT 3SM BR BKN002 OVC005
      TEMPO 2312/2314 1/2SM -DZ FG VV001
     FM231400 16010KT 5SM BR BKN003 OVC007
     FM231600 14011KT P6SM OVC015
     FM231800 12012G18KT P6SM VCTS BKN015 BKN025CB
     FM240200 03007KT 4SM -RA BR BKN007 OVC015=



000
FTUS45 KCYS 230902 AAB
TAFCYS
TAF AMD
KCYS 230902Z 2309/2406 17010KT 6SM BR BKN002 OVC015
      TEMPO 2309/2313 1SM -DZ BR OVC001
     FM231400 17008KT 5SM BR BKN003 OVC007
     FM231600 15009KT P6SM OVC010
     FM231800 15012G22KT P6SM VCTS BKN025CB=



000
FTUS45 KCYS 230902 AAB
TAFCYS
TAF AMD
KCYS 230902Z 2309/2406 17010KT 6SM BR BKN002 OVC015
      TEMPO 2309/2313 1SM -DZ BR OVC001
     FM231400 17008KT 5SM BR BKN003 OVC007
     FM231600 15009KT P6SM OVC010
     FM231800 15012G22KT P6SM VCTS BKN025CB=



000
FTUS45 KCYS 230807 AAC
TAFCYS
TAF AMD
KCYS 230807Z 2308/2406 18008KT 6SM BR BKN003 OVC010
      TEMPO 2310/2314 1/2SM -DZ FG VV001
     FM231400 17008KT 5SM BR BKN003 OVC007
     FM231600 15009KT P6SM OVC010
     FM231800 15012G22KT P6SM VCTS BKN025CB=



000
FTUS45 KCYS 230807 AAC
TAFCYS
TAF AMD
KCYS 230807Z 2308/2406 18008KT 6SM BR BKN003 OVC010
      TEMPO 2310/2314 1/2SM -DZ FG VV001
     FM231400 17008KT 5SM BR BKN003 OVC007
     FM231600 15009KT P6SM OVC010
     FM231800 15012G22KT P6SM VCTS BKN025CB=



000
FTUS45 KCYS 230706 AAB
TAFLAR
TAF AMD
KLAR 230706Z 2307/2406 16013KT P6SM SCT005 BKN100
     FM230900 17008KT 4SM BR BKN015
     FM231500 13010KT P6SM BKN025
     FM231800 14012KT P6SM VCTS BKN030CB BKN050=



000
FTUS45 KCYS 230706 AAB
TAFLAR
TAF AMD
KLAR 230706Z 2307/2406 16013KT P6SM SCT005 BKN100
     FM230900 17008KT 4SM BR BKN015
     FM231500 13010KT P6SM BKN025
     FM231800 14012KT P6SM VCTS BKN030CB BKN050=



000
FTUS45 KCYS 230706 AAB
TAFLAR
TAF AMD
KLAR 230706Z 2307/2406 16013KT P6SM SCT005 BKN100
     FM230900 17008KT 4SM BR BKN015
     FM231500 13010KT P6SM BKN025
     FM231800 14012KT P6SM VCTS BKN030CB BKN050=



000
FTUS45 KCYS 230706 AAB
TAFLAR
TAF AMD
KLAR 230706Z 2307/2406 16013KT P6SM SCT005 BKN100
     FM230900 17008KT 4SM BR BKN015
     FM231500 13010KT P6SM BKN025
     FM231800 14012KT P6SM VCTS BKN030CB BKN050=



000
FTUS45 KCYS 230618 AAA
TAFLAR
TAF AMD
KLAR 230618Z 2306/2406 15013KT P6SM SCT005 BKN100
      TEMPO 2306/2309 OVC005
     FM230900 17008KT 4SM BR BKN015
     FM231500 13010KT P6SM BKN025
     FM231800 14012KT P6SM VCTS BKN030CB BKN050=



000
FTUS45 KCYS 230618 AAA
TAFLAR
TAF AMD
KLAR 230618Z 2306/2406 15013KT P6SM SCT005 BKN100
      TEMPO 2306/2309 OVC005
     FM230900 17008KT 4SM BR BKN015
     FM231500 13010KT P6SM BKN025
     FM231800 14012KT P6SM VCTS BKN030CB BKN050=



000
FTUS45 KCYS 230618 AAA
TAFLAR
TAF AMD
KLAR 230618Z 2306/2406 15013KT P6SM SCT005 BKN100
      TEMPO 2306/2309 OVC005
     FM230900 17008KT 4SM BR BKN015
     FM231500 13010KT P6SM BKN025
     FM231800 14012KT P6SM VCTS BKN030CB BKN050=



000
FTUS45 KCYS 230618 AAA
TAFLAR
TAF AMD
KLAR 230618Z 2306/2406 15013KT P6SM SCT005 BKN100
      TEMPO 2306/2309 OVC005
     FM230900 17008KT 4SM BR BKN015
     FM231500 13010KT P6SM BKN025
     FM231800 14012KT P6SM VCTS BKN030CB BKN050=



000
FTUS45 KCYS 230532
TAFCYS
TAF
KCYS 230532Z 2306/2406 15010KT 5SM BR OVC004
      TEMPO 2306/2308 1SM BR OVC002
     FM230800 18008KT 1/4SM -DZ FG VV001
     FM231400 17008KT 2SM BR OVC001
     FM231600 15009KT P6SM OVC007
     FM231800 15012G22KT P6SM VCTS BKN025CB=



000
FTUS45 KCYS 230532
TAFLAR
TAF
KLAR 230532Z 2306/2406 15012KT P6SM SCT025 BKN100
     FM230900 17008KT 4SM BR BKN015
     FM231500 13010KT P6SM BKN025
     FM231800 14012KT P6SM VCTS BKN030CB BKN050=



000
FTUS45 KCYS 230532
TAFLAR
TAF
KLAR 230532Z 2306/2406 15012KT P6SM SCT025 BKN100
     FM230900 17008KT 4SM BR BKN015
     FM231500 13010KT P6SM BKN025
     FM231800 14012KT P6SM VCTS BKN030CB BKN050=



000
FTUS45 KCYS 230532
TAFCYS
TAF
KCYS 230532Z 2306/2406 15010KT 5SM BR OVC004
      TEMPO 2306/2308 1SM BR OVC002
     FM230800 18008KT 1/4SM -DZ FG VV001
     FM231400 17008KT 2SM BR OVC001
     FM231600 15009KT P6SM OVC007
     FM231800 15012G22KT P6SM VCTS BKN025CB=



000
FTUS45 KCYS 230532
TAFRWL
TAF
KRWL 230532Z 2306/2406 12007KT P6SM VCSH SCT035 BKN100
     FM231800 26010KT P6SM VCTS BKN050CB BKN100=



000
FTUS45 KCYS 230532
TAFRWL
TAF
KRWL 230532Z 2306/2406 12007KT P6SM VCSH SCT035 BKN100
     FM231800 26010KT P6SM VCTS BKN050CB BKN100=



000
FTUS45 KCYS 230532
TAFLAR
TAF
KLAR 230532Z 2306/2406 15012KT P6SM SCT025 BKN100
     FM230900 17008KT 4SM BR BKN015
     FM231500 13010KT P6SM BKN025
     FM231800 14012KT P6SM VCTS BKN030CB BKN050=



000
FTUS45 KCYS 230532
TAFCYS
TAF
KCYS 230532Z 2306/2406 15010KT 5SM BR OVC004
      TEMPO 2306/2308 1SM BR OVC002
     FM230800 18008KT 1/4SM -DZ FG VV001
     FM231400 17008KT 2SM BR OVC001
     FM231600 15009KT P6SM OVC007
     FM231800 15012G22KT P6SM VCTS BKN025CB=



000
FTUS45 KCYS 230532
TAFCYS
TAF
KCYS 230532Z 2306/2406 15010KT 5SM BR OVC004
      TEMPO 2306/2308 1SM BR OVC002
     FM230800 18008KT 1/4SM -DZ FG VV001
     FM231400 17008KT 2SM BR OVC001
     FM231600 15009KT P6SM OVC007
     FM231800 15012G22KT P6SM VCTS BKN025CB=



000
FTUS45 KCYS 230532
TAFRWL
TAF
KRWL 230532Z 2306/2406 12007KT P6SM VCSH SCT035 BKN100
     FM231800 26010KT P6SM VCTS BKN050CB BKN100=



000
FTUS45 KCYS 230532
TAFLAR
TAF
KLAR 230532Z 2306/2406 15012KT P6SM SCT025 BKN100
     FM230900 17008KT 4SM BR BKN015
     FM231500 13010KT P6SM BKN025
     FM231800 14012KT P6SM VCTS BKN030CB BKN050=



000
FTUS45 KCYS 230532
TAFRWL
TAF
KRWL 230532Z 2306/2406 12007KT P6SM VCSH SCT035 BKN100
     FM231800 26010KT P6SM VCTS BKN050CB BKN100=



000
FTUS45 KCYS 230401 AAB
TAFCYS
TAF AMD
KCYS 230401Z 2304/2324 14010KT 3SM BR OVC002
     FM230700 18008KT 1/4SM -DZ FG VV001
     FM231400 17008KT 2SM BR OVC001
     FM231600 15009KT P6SM OVC007
     FM231800 15012G22KT P6SM VCTS BKN025CB=



000
FTUS45 KCYS 230401 AAB
TAFCYS
TAF AMD
KCYS 230401Z 2304/2324 14010KT 3SM BR OVC002
     FM230700 18008KT 1/4SM -DZ FG VV001
     FM231400 17008KT 2SM BR OVC001
     FM231600 15009KT P6SM OVC007
     FM231800 15012G22KT P6SM VCTS BKN025CB=



000
FTUS45 KCYS 230203 AAA
TAFCYS
TAF AMD
KCYS 230203Z 2302/2324 12010KT P6SM SCT010 OVC020
      TEMPO 2302/2304 1SM SHRA BR OVC005
     FM230400 16010KT 4SM BR OVC007
     FM230800 18008KT 1/4SM -DZ FG VV001
     FM231400 17008KT 2SM BR OVC001
     FM231600 15009KT P6SM OVC007
     FM231800 15012G22KT P6SM VCTS BKN025CB=



000
FTUS45 KCYS 230203 AAA
TAFCYS
TAF AMD
KCYS 230203Z 2302/2324 12010KT P6SM SCT010 OVC020
      TEMPO 2302/2304 1SM SHRA BR OVC005
     FM230400 16010KT 4SM BR OVC007
     FM230800 18008KT 1/4SM -DZ FG VV001
     FM231400 17008KT 2SM BR OVC001
     FM231600 15009KT P6SM OVC007
     FM231800 15012G22KT P6SM VCTS BKN025CB=



000
FTUS45 KCYS 230203 AAA
TAFCYS
TAF AMD
KCYS 230203Z 2302/2324 12010KT P6SM SCT010 OVC020
      TEMPO 2302/2304 1SM SHRA BR OVC005
     FM230400 16010KT 4SM BR OVC007
     FM230800 18008KT 1/4SM -DZ FG VV001
     FM231400 17008KT 2SM BR OVC001
     FM231600 15009KT P6SM OVC007
     FM231800 15012G22KT P6SM VCTS BKN025CB=



000
FTUS45 KCYS 222342 CCA
TAFCYS
TAF COR
KCYS 222342Z 2300/2324 12010KT P6SM SCT010 OVC020
     FM230400 16010KT 4SM BR OVC007
     FM230800 18008KT 1/4SM -DZ FG VV001
     FM231400 17008KT 2SM BR OVC001
     FM231600 15009KT P6SM OVC007
     FM231800 15012G22KT P6SM VCTS BKN025CB=



000
FTUS45 KCYS 222342 CCA
TAFCYS
TAF COR
KCYS 222342Z 2300/2324 12010KT P6SM SCT010 OVC020
     FM230400 16010KT 4SM BR OVC007
     FM230800 18008KT 1/4SM -DZ FG VV001
     FM231400 17008KT 2SM BR OVC001
     FM231600 15009KT P6SM OVC007
     FM231800 15012G22KT P6SM VCTS BKN025CB=



000
FTUS45 KCYS 222342 CCA
TAFCYS
TAF COR
KCYS 222342Z 2300/2324 12010KT P6SM SCT010 OVC020
     FM230400 16010KT 4SM BR OVC007
     FM230800 18008KT 1/4SM -DZ FG VV001
     FM231400 17008KT 2SM BR OVC001
     FM231600 15009KT P6SM OVC007
     FM231800 15012G22KT P6SM VCTS BKN025CB=



000
FTUS45 KCYS 222339
TAFLAR
TAF
KLAR 222339Z 2300/2324 14010KT P6SM SCT020 BKN060
      TEMPO 2300/2303 4SM -SHRA BKN020 OVC030
     FM230300 16008KT P6SM SCT015 BKN100
     FM231600 14012KT P6SM VCTS BKN030CB=



000
FTUS45 KCYS 222339
TAFRWL
TAF
KRWL 222339Z 2300/2324 23010KT P6SM VCSH BKN040
      TEMPO 2301/2305 4SM -SHRA BKN025
     FM230500 24008KT P6SM SCT035
     FM231700 26010KT P6SM VCTS BKN050CB=



000
FTUS45 KCYS 222339
TAFCYS
TAF
KCYS 222339Z 2300/2324 13010KT P6SM SCT015 OVC035
      TEMPO 2300/2303 5SM -RA BKN015
     FM230400 16010KT 4SM BR OVC007
     FM230800 18008KT 1/4SM -DZ FG VV001
     FM231400 17008KT 2SM BR OVC001
     FM231600 15009KT P6SM OVC007
     FM231800 15012G22KT P6SM VCTS BKN025CB=



000
FTUS45 KCYS 222339
TAFRWL
TAF
KRWL 222339Z 2300/2324 23010KT P6SM VCSH BKN040
      TEMPO 2301/2305 4SM -SHRA BKN025
     FM230500 24008KT P6SM SCT035
     FM231700 26010KT P6SM VCTS BKN050CB=



000
FTUS45 KCYS 222339
TAFCYS
TAF
KCYS 222339Z 2300/2324 13010KT P6SM SCT015 OVC035
      TEMPO 2300/2303 5SM -RA BKN015
     FM230400 16010KT 4SM BR OVC007
     FM230800 18008KT 1/4SM -DZ FG VV001
     FM231400 17008KT 2SM BR OVC001
     FM231600 15009KT P6SM OVC007
     FM231800 15012G22KT P6SM VCTS BKN025CB=



000
FTUS45 KCYS 222339
TAFLAR
TAF
KLAR 222339Z 2300/2324 14010KT P6SM SCT020 BKN060
      TEMPO 2300/2303 4SM -SHRA BKN020 OVC030
     FM230300 16008KT P6SM SCT015 BKN100
     FM231600 14012KT P6SM VCTS BKN030CB=



000
FTUS45 KCYS 222339
TAFLAR
TAF
KLAR 222339Z 2300/2324 14010KT P6SM SCT020 BKN060
      TEMPO 2300/2303 4SM -SHRA BKN020 OVC030
     FM230300 16008KT P6SM SCT015 BKN100
     FM231600 14012KT P6SM VCTS BKN030CB=



000
FTUS45 KCYS 222339
TAFCYS
TAF
KCYS 222339Z 2300/2324 13010KT P6SM SCT015 OVC035
      TEMPO 2300/2303 5SM -RA BKN015
     FM230400 16010KT 4SM BR OVC007
     FM230800 18008KT 1/4SM -DZ FG VV001
     FM231400 17008KT 2SM BR OVC001
     FM231600 15009KT P6SM OVC007
     FM231800 15012G22KT P6SM VCTS BKN025CB=



000
FTUS45 KCYS 222339
TAFRWL
TAF
KRWL 222339Z 2300/2324 23010KT P6SM VCSH BKN040
      TEMPO 2301/2305 4SM -SHRA BKN025
     FM230500 24008KT P6SM SCT035
     FM231700 26010KT P6SM VCTS BKN050CB=



000
FTUS45 KCYS 222339
TAFLAR
TAF
KLAR 222339Z 2300/2324 14010KT P6SM SCT020 BKN060
      TEMPO 2300/2303 4SM -SHRA BKN020 OVC030
     FM230300 16008KT P6SM SCT015 BKN100
     FM231600 14012KT P6SM VCTS BKN030CB=



000
FTUS45 KCYS 222339
TAFCYS
TAF
KCYS 222339Z 2300/2324 13010KT P6SM SCT015 OVC035
      TEMPO 2300/2303 5SM -RA BKN015
     FM230400 16010KT 4SM BR OVC007
     FM230800 18008KT 1/4SM -DZ FG VV001
     FM231400 17008KT 2SM BR OVC001
     FM231600 15009KT P6SM OVC007
     FM231800 15012G22KT P6SM VCTS BKN025CB=



000
FTUS45 KCYS 222339
TAFRWL
TAF
KRWL 222339Z 2300/2324 23010KT P6SM VCSH BKN040
      TEMPO 2301/2305 4SM -SHRA BKN025
     FM230500 24008KT P6SM SCT035
     FM231700 26010KT P6SM VCTS BKN050CB=



000
FTUS45 KCYS 222223 AAB
TAFLAR
TAF AMD
KLAR 222223Z 2222/2318 16013KT P6SM -RA BKN035
      TEMPO 2223/2301 5SM -SHRA BKN015 OVC030
     FM230100 16008KT P6SM SCT025
     FM231600 08008KT P6SM VCTS BKN035CB=



000
FTUS45 KCYS 222112 AAA
TAFLAR
TAF AMD
KLAR 222112Z 2221/2318 16013KT P6SM -RA BKN030
      TEMPO 2221/2301 5SM -SHRA BKN015 OVC030
     FM230100 16008KT P6SM SCT025
     FM231600 08008KT P6SM VCTS BKN035CB=



000
FTUS45 KCYS 222112 AAA
TAFLAR
TAF AMD
KLAR 222112Z 2221/2318 16013KT P6SM -RA BKN030
      TEMPO 2221/2301 5SM -SHRA BKN015 OVC030
     FM230100 16008KT P6SM SCT025
     FM231600 08008KT P6SM VCTS BKN035CB=



000
FTUS45 KCYS 222112 AAA
TAFLAR
TAF AMD
KLAR 222112Z 2221/2318 16013KT P6SM -RA BKN030
      TEMPO 2221/2301 5SM -SHRA BKN015 OVC030
     FM230100 16008KT P6SM SCT025
     FM231600 08008KT P6SM VCTS BKN035CB=



000
FTUS45 KCYS 222112 AAA
TAFLAR
TAF AMD
KLAR 222112Z 2221/2318 16013KT P6SM -RA BKN030
      TEMPO 2221/2301 5SM -SHRA BKN015 OVC030
     FM230100 16008KT P6SM SCT025
     FM231600 08008KT P6SM VCTS BKN035CB=



000
FTUS45 KCYS 222009 AAA
TAFRWL
TAF AMD
KRWL 222009Z 2220/2318 23013G24KT P6SM -RA OVC040
      TEMPO 2220/2222 4SM -RA OVC025
     FM230000 25008KT P6SM SCT035
     FM231600 VRB05KT P6SM VCTS BKN035CB=



000
FTUS45 KCYS 222009 AAA
TAFRWL
TAF AMD
KRWL 222009Z 2220/2318 23013G24KT P6SM -RA OVC040
      TEMPO 2220/2222 4SM -RA OVC025
     FM230000 25008KT P6SM SCT035
     FM231600 VRB05KT P6SM VCTS BKN035CB=



000
FTUS45 KCYS 222009 AAA
TAFRWL
TAF AMD
KRWL 222009Z 2220/2318 23013G24KT P6SM -RA OVC040
      TEMPO 2220/2222 4SM -RA OVC025
     FM230000 25008KT P6SM SCT035
     FM231600 VRB05KT P6SM VCTS BKN035CB=



000
FTUS45 KCYS 222009 AAA
TAFRWL
TAF AMD
KRWL 222009Z 2220/2318 23013G24KT P6SM -RA OVC040
      TEMPO 2220/2222 4SM -RA OVC025
     FM230000 25008KT P6SM SCT035
     FM231600 VRB05KT P6SM VCTS BKN035CB=



000
FTUS45 KCYS 221841 AAA
TAFCYS
TAF AMD
KCYS 221841Z 2219/2318 13011KT 6SM -RA BR BKN015 OVC025
      TEMPO 2219/2221 5SM -RA BKN006 OVC012
     FM222100 14012KT P6SM OVC025
     FM230300 15010KT P6SM OVC012
     FM230500 17010KT 4SM BR OVC006
     FM230900 16008KT 1SM BR OVC002
     FM231400 14007KT 4SM BR OVC008
     FM231600 09008KT P6SM OVC012=



000
FTUS45 KCYS 221841 AAA
TAFCYS
TAF AMD
KCYS 221841Z 2219/2318 13011KT 6SM -RA BR BKN015 OVC025
      TEMPO 2219/2221 5SM -RA BKN006 OVC012
     FM222100 14012KT P6SM OVC025
     FM230300 15010KT P6SM OVC012
     FM230500 17010KT 4SM BR OVC006
     FM230900 16008KT 1SM BR OVC002
     FM231400 14007KT 4SM BR OVC008
     FM231600 09008KT P6SM OVC012=



000
FTUS45 KCYS 221841 AAA
TAFCYS
TAF AMD
KCYS 221841Z 2219/2318 13011KT 6SM -RA BR BKN015 OVC025
      TEMPO 2219/2221 5SM -RA BKN006 OVC012
     FM222100 14012KT P6SM OVC025
     FM230300 15010KT P6SM OVC012
     FM230500 17010KT 4SM BR OVC006
     FM230900 16008KT 1SM BR OVC002
     FM231400 14007KT 4SM BR OVC008
     FM231600 09008KT P6SM OVC012=



000
FTUS45 KCYS 221841 AAA
TAFCYS
TAF AMD
KCYS 221841Z 2219/2318 13011KT 6SM -RA BR BKN015 OVC025
      TEMPO 2219/2221 5SM -RA BKN006 OVC012
     FM222100 14012KT P6SM OVC025
     FM230300 15010KT P6SM OVC012
     FM230500 17010KT 4SM BR OVC006
     FM230900 16008KT 1SM BR OVC002
     FM231400 14007KT 4SM BR OVC008
     FM231600 09008KT P6SM OVC012=



000
FTUS45 KCYS 221742
TAFCYS
TAF
KCYS 221742Z 2218/2318 13011KT 4SM -RA BR BKN015 OVC025
      TEMPO 2218/2220 6SM -RA OVC025
     FM222000 14012KT P6SM OVC025
     FM230300 15010KT P6SM OVC012
     FM230500 17010KT 4SM BR OVC006
     FM230900 16008KT 1SM BR OVC002
     FM231400 14007KT 4SM BR OVC008
     FM231600 09008KT P6SM OVC012=



000
FTUS45 KCYS 221742
TAFLAR
TAF
KLAR 221742Z 2218/2318 16013KT P6SM BKN050
      TEMPO 2220/2222 5SM -SHRA BKN025 OVC050
     FM230400 16008KT P6SM SCT025
     FM231600 08008KT P6SM VCTS BKN035CB=



000
FTUS45 KCYS 221742
TAFRWL
TAF
KRWL 221742Z 2218/2318 19010KT P6SM OVC050
     FM222000 23013G24KT P6SM VCTS BKN060CB
      TEMPO 2220/2222 4SM TSRA OVC040CB
     FM230000 25008KT P6SM SCT035
     FM231600 VRB05KT P6SM VCTS BKN035CB=



000
FTUS45 KCYS 221742
TAFRWL
TAF
KRWL 221742Z 2218/2318 19010KT P6SM OVC050
     FM222000 23013G24KT P6SM VCTS BKN060CB
      TEMPO 2220/2222 4SM TSRA OVC040CB
     FM230000 25008KT P6SM SCT035
     FM231600 VRB05KT P6SM VCTS BKN035CB=



000
FTUS45 KCYS 221742
TAFLAR
TAF
KLAR 221742Z 2218/2318 16013KT P6SM BKN050
      TEMPO 2220/2222 5SM -SHRA BKN025 OVC050
     FM230400 16008KT P6SM SCT025
     FM231600 08008KT P6SM VCTS BKN035CB=



000
FTUS45 KCYS 221742
TAFCYS
TAF
KCYS 221742Z 2218/2318 13011KT 4SM -RA BR BKN015 OVC025
      TEMPO 2218/2220 6SM -RA OVC025
     FM222000 14012KT P6SM OVC025
     FM230300 15010KT P6SM OVC012
     FM230500 17010KT 4SM BR OVC006
     FM230900 16008KT 1SM BR OVC002
     FM231400 14007KT 4SM BR OVC008
     FM231600 09008KT P6SM OVC012=



000
FTUS45 KCYS 221742
TAFCYS
TAF
KCYS 221742Z 2218/2318 13011KT 4SM -RA BR BKN015 OVC025
      TEMPO 2218/2220 6SM -RA OVC025
     FM222000 14012KT P6SM OVC025
     FM230300 15010KT P6SM OVC012
     FM230500 17010KT 4SM BR OVC006
     FM230900 16008KT 1SM BR OVC002
     FM231400 14007KT 4SM BR OVC008
     FM231600 09008KT P6SM OVC012=



000
FTUS45 KCYS 221742
TAFLAR
TAF
KLAR 221742Z 2218/2318 16013KT P6SM BKN050
      TEMPO 2220/2222 5SM -SHRA BKN025 OVC050
     FM230400 16008KT P6SM SCT025
     FM231600 08008KT P6SM VCTS BKN035CB=



000
FTUS45 KCYS 221742
TAFRWL
TAF
KRWL 221742Z 2218/2318 19010KT P6SM OVC050
     FM222000 23013G24KT P6SM VCTS BKN060CB
      TEMPO 2220/2222 4SM TSRA OVC040CB
     FM230000 25008KT P6SM SCT035
     FM231600 VRB05KT P6SM VCTS BKN035CB=



000
FTUS45 KCYS 221742
TAFCYS
TAF
KCYS 221742Z 2218/2318 13011KT 4SM -RA BR BKN015 OVC025
      TEMPO 2218/2220 6SM -RA OVC025
     FM222000 14012KT P6SM OVC025
     FM230300 15010KT P6SM OVC012
     FM230500 17010KT 4SM BR OVC006
     FM230900 16008KT 1SM BR OVC002
     FM231400 14007KT 4SM BR OVC008
     FM231600 09008KT P6SM OVC012=



000
FTUS45 KCYS 221742
TAFRWL
TAF
KRWL 221742Z 2218/2318 19010KT P6SM OVC050
     FM222000 23013G24KT P6SM VCTS BKN060CB
      TEMPO 2220/2222 4SM TSRA OVC040CB
     FM230000 25008KT P6SM SCT035
     FM231600 VRB05KT P6SM VCTS BKN035CB=



000
FTUS45 KCYS 221742
TAFLAR
TAF
KLAR 221742Z 2218/2318 16013KT P6SM BKN050
      TEMPO 2220/2222 5SM -SHRA BKN025 OVC050
     FM230400 16008KT P6SM SCT025
     FM231600 08008KT P6SM VCTS BKN035CB=



000
FTUS45 KCYS 221440 AAB
TAFLAR
TAF AMD
KLAR 221440Z 2215/2312 15012KT P6SM VCSH BKN012 OVC035
     FM221800 16013KT P6SM BKN050
      TEMPO 2219/2222 5SM TSRA BKN025CB
     FM230000 15015KT 2SM BR OVC025=



000
FTUS45 KCYS 221440 AAB
TAFLAR
TAF AMD
KLAR 221440Z 2215/2312 15012KT P6SM VCSH BKN012 OVC035
     FM221800 16013KT P6SM BKN050
      TEMPO 2219/2222 5SM TSRA BKN025CB
     FM230000 15015KT 2SM BR OVC025=



000
FTUS45 KCYS 221345 AAB
TAFCYS
TAF AMD
KCYS 221345Z 2214/2312 13011G17KT 2SM -RA BR OVC002
     FM221800 13011KT 4SM -RA BR OVC015
     FM230100 15010KT 1SM BR OVC008=



000
FTUS45 KCYS 221345 AAB
TAFCYS
TAF AMD
KCYS 221345Z 2214/2312 13011G17KT 2SM -RA BR OVC002
     FM221800 13011KT 4SM -RA BR OVC015
     FM230100 15010KT 1SM BR OVC008=



000
FTUS45 KCYS 221302 AAA
TAFRWL
TAF AMD
KRWL 221302Z 2213/2312 12005KT P6SM BKN025 OVC035
     FM221600 19010KT P6SM OVC050
     FM222000 23013G24KT P6SM BKN060
      TEMPO 2220/2224 4SM TSRA OVC040CB
     FM230000 25008KT P6SM OVC025=



000
FTUS45 KCYS 221302 AAA
TAFRWL
TAF AMD
KRWL 221302Z 2213/2312 12005KT P6SM BKN025 OVC035
     FM221600 19010KT P6SM OVC050
     FM222000 23013G24KT P6SM BKN060
      TEMPO 2220/2224 4SM TSRA OVC040CB
     FM230000 25008KT P6SM OVC025=



000
FTUS45 KCYS 221301 AAA
TAFLAR
TAF AMD
KLAR 221301Z 2213/2312 15012KT P6SM VCSH BKN009 OVC030
     FM221800 16013KT P6SM BKN050
      TEMPO 2219/2222 5SM TSRA BKN025CB
     FM230000 15015KT 2SM BR OVC025=



000
FTUS45 KCYS 221301 AAA
TAFLAR
TAF AMD
KLAR 221301Z 2213/2312 15012KT P6SM VCSH BKN009 OVC030
     FM221800 16013KT P6SM BKN050
      TEMPO 2219/2222 5SM TSRA BKN025CB
     FM230000 15015KT 2SM BR OVC025=



000
FTUS45 KCYS 221211 AAA
TAFCYS
TAF AMD
KCYS 221211Z 2212/2312 15012KT 1/2SM FG OVC002
      TEMPO 2212/2216 4SM -RA BR OVC007
     FM221800 13011KT 4SM -RA BR OVC015
     FM230100 15010KT 1SM BR OVC008=



000
FTUS45 KCYS 221211 AAA
TAFCYS
TAF AMD
KCYS 221211Z 2212/2312 15012KT 1/2SM FG OVC002
      TEMPO 2212/2216 4SM -RA BR OVC007
     FM221800 13011KT 4SM -RA BR OVC015
     FM230100 15010KT 1SM BR OVC008=



000
FTUS45 KCYS 221211 AAA
TAFCYS
TAF AMD
KCYS 221211Z 2212/2312 15012KT 1/2SM FG OVC002
      TEMPO 2212/2216 4SM -RA BR OVC007
     FM221800 13011KT 4SM -RA BR OVC015
     FM230100 15010KT 1SM BR OVC008=



000
FTUS45 KCYS 221211 AAA
TAFCYS
TAF AMD
KCYS 221211Z 2212/2312 15012KT 1/2SM FG OVC002
      TEMPO 2212/2216 4SM -RA BR OVC007
     FM221800 13011KT 4SM -RA BR OVC015
     FM230100 15010KT 1SM BR OVC008=



000
FTUS45 KCYS 221137
TAFLAR
TAF
KLAR 221137Z 2212/2312 15012KT P6SM -RA OVC007
     FM221800 16013KT P6SM BKN050
      TEMPO 2219/2222 5SM TSRA BKN025CB
     FM230000 15015KT 2SM BR OVC025=



000
FTUS45 KCYS 221137
TAFRWL
TAF
KRWL 221137Z 2212/2312 05005KT P6SM -RA OVC040
     FM221500 19010KT P6SM OVC050
     FM222000 23013G24KT P6SM BKN060
      TEMPO 2220/2224 4SM TSRA OVC040CB
     FM230000 25008KT P6SM OVC025=



000
FTUS45 KCYS 221137
TAFRWL
TAF
KRWL 221137Z 2212/2312 05005KT P6SM -RA OVC040
     FM221500 19010KT P6SM OVC050
     FM222000 23013G24KT P6SM BKN060
      TEMPO 2220/2224 4SM TSRA OVC040CB
     FM230000 25008KT P6SM OVC025=



000
FTUS45 KCYS 221137
TAFCYS
TAF
KCYS 221137Z 2212/2312 14016KT 1SM -RA BR OVC002
      TEMPO 2212/2216 4SM -RA BR OVC007
     FM221800 13011KT 4SM -RA BR OVC015
     FM230100 15010KT 1SM BR OVC008=



000
FTUS45 KCYS 221137
TAFLAR
TAF
KLAR 221137Z 2212/2312 15012KT P6SM -RA OVC007
     FM221800 16013KT P6SM BKN050
      TEMPO 2219/2222 5SM TSRA BKN025CB
     FM230000 15015KT 2SM BR OVC025=



000
FTUS45 KCYS 221137
TAFCYS
TAF
KCYS 221137Z 2212/2312 14016KT 1SM -RA BR OVC002
      TEMPO 2212/2216 4SM -RA BR OVC007
     FM221800 13011KT 4SM -RA BR OVC015
     FM230100 15010KT 1SM BR OVC008=



000
FTUS45 KCYS 221137
TAFCYS
TAF
KCYS 221137Z 2212/2312 14016KT 1SM -RA BR OVC002
      TEMPO 2212/2216 4SM -RA BR OVC007
     FM221800 13011KT 4SM -RA BR OVC015
     FM230100 15010KT 1SM BR OVC008=



000
FTUS45 KCYS 221137
TAFLAR
TAF
KLAR 221137Z 2212/2312 15012KT P6SM -RA OVC007
     FM221800 16013KT P6SM BKN050
      TEMPO 2219/2222 5SM TSRA BKN025CB
     FM230000 15015KT 2SM BR OVC025=



000
FTUS45 KCYS 221137
TAFRWL
TAF
KRWL 221137Z 2212/2312 05005KT P6SM -RA OVC040
     FM221500 19010KT P6SM OVC050
     FM222000 23013G24KT P6SM BKN060
      TEMPO 2220/2224 4SM TSRA OVC040CB
     FM230000 25008KT P6SM OVC025=



000
FTUS45 KCYS 221137
TAFLAR
TAF
KLAR 221137Z 2212/2312 15012KT P6SM -RA OVC007
     FM221800 16013KT P6SM BKN050
      TEMPO 2219/2222 5SM TSRA BKN025CB
     FM230000 15015KT 2SM BR OVC025=



000
FTUS45 KCYS 221137
TAFCYS
TAF
KCYS 221137Z 2212/2312 14016KT 1SM -RA BR OVC002
      TEMPO 2212/2216 4SM -RA BR OVC007
     FM221800 13011KT 4SM -RA BR OVC015
     FM230100 15010KT 1SM BR OVC008=



000
FTUS45 KCYS 221137
TAFRWL
TAF
KRWL 221137Z 2212/2312 05005KT P6SM -RA OVC040
     FM221500 19010KT P6SM OVC050
     FM222000 23013G24KT P6SM BKN060
      TEMPO 2220/2224 4SM TSRA OVC040CB
     FM230000 25008KT P6SM OVC025=



000
FTUS45 KCYS 220901 AAB
TAFLAR
TAF AMD
KLAR 220901Z 2209/2306 15012KT P6SM OVC007
      TEMPO 2209/2211 2SM -RA BR OVC004
     FM221100 15010KT 1SM -RA BR OVC008
     FM221800 16013KT P6SM BKN050
      TEMPO 2219/2222 5SM TSRA BKN025CB
     FM230000 15015KT 2SM BR OVC025=



000
FTUS45 KCYS 220901 AAB
TAFLAR
TAF AMD
KLAR 220901Z 2209/2306 15012KT P6SM OVC007
      TEMPO 2209/2211 2SM -RA BR OVC004
     FM221100 15010KT 1SM -RA BR OVC008
     FM221800 16013KT P6SM BKN050
      TEMPO 2219/2222 5SM TSRA BKN025CB
     FM230000 15015KT 2SM BR OVC025=



000
FTUS45 KCYS 220901 AAB
TAFLAR
TAF AMD
KLAR 220901Z 2209/2306 15012KT P6SM OVC007
      TEMPO 2209/2211 2SM -RA BR OVC004
     FM221100 15010KT 1SM -RA BR OVC008
     FM221800 16013KT P6SM BKN050
      TEMPO 2219/2222 5SM TSRA BKN025CB
     FM230000 15015KT 2SM BR OVC025=



000
FTUS45 KCYS 220707 AAA
TAFLAR
TAF AMD
KLAR 220707Z 2207/2306 15018G28KT P6SM OVC011
      TEMPO 2207/2208 3SM -RA BR OVC007
     FM220800 16020KT 3SM -RA BR OVC015
     FM221100 15010KT 1SM -RA BR OVC008
     FM221800 16013KT P6SM BKN050
      TEMPO 2219/2222 5SM TSRA BKN025CB
     FM230000 15015KT 2SM BR OVC025=



000
FTUS45 KCYS 220707 AAA
TAFLAR
TAF AMD
KLAR 220707Z 2207/2306 15018G28KT P6SM OVC011
      TEMPO 2207/2208 3SM -RA BR OVC007
     FM220800 16020KT 3SM -RA BR OVC015
     FM221100 15010KT 1SM -RA BR OVC008
     FM221800 16013KT P6SM BKN050
      TEMPO 2219/2222 5SM TSRA BKN025CB
     FM230000 15015KT 2SM BR OVC025=



000
FTUS45 KCYS 220526
TAFLAR
TAF
KLAR 220526Z 2206/2306 15018G28KT P6SM OVC060
     FM220800 16020KT 3SM -RA BR OVC015
     FM221100 15010KT 1SM -RA BR OVC008
     FM221800 16013KT P6SM BKN050
      TEMPO 2219/2222 5SM TSRA BKN025CB
     FM230000 15015KT 2SM BR OVC025=



000
FTUS45 KCYS 220526
TAFCYS
TAF
KCYS 220526Z 2206/2306 15013G23KT P6SM OVC004
     FM220800 15011KT 3/4SM BR OVC004
     FM221100 13010KT 1SM -RA BR OVC005
     FM221800 13011KT 4SM -RA BR OVC015
     FM230100 15010KT 1SM BR OVC008=



000
FTUS45 KCYS 220526
TAFRWL
TAF
KRWL 220526Z 2206/2306 05006KT P6SM OVC035
      TEMPO 2206/2209 2SM RA BR OVC015
     FM220900 05005KT 1SM -RA BR OVC015
     FM221500 19010KT P6SM OVC050
     FM222000 23013G24KT P6SM BKN060
      TEMPO 2220/2224 4SM TSRA OVC040CB
     FM230000 25008KT P6SM OVC025=



000
FTUS45 KCYS 220526
TAFCYS
TAF
KCYS 220526Z 2206/2306 15013G23KT P6SM OVC004
     FM220800 15011KT 3/4SM BR OVC004
     FM221100 13010KT 1SM -RA BR OVC005
     FM221800 13011KT 4SM -RA BR OVC015
     FM230100 15010KT 1SM BR OVC008=



000
FTUS45 KCYS 220526
TAFRWL
TAF
KRWL 220526Z 2206/2306 05006KT P6SM OVC035
      TEMPO 2206/2209 2SM RA BR OVC015
     FM220900 05005KT 1SM -RA BR OVC015
     FM221500 19010KT P6SM OVC050
     FM222000 23013G24KT P6SM BKN060
      TEMPO 2220/2224 4SM TSRA OVC040CB
     FM230000 25008KT P6SM OVC025=



000
FTUS45 KCYS 220526
TAFLAR
TAF
KLAR 220526Z 2206/2306 15018G28KT P6SM OVC060
     FM220800 16020KT 3SM -RA BR OVC015
     FM221100 15010KT 1SM -RA BR OVC008
     FM221800 16013KT P6SM BKN050
      TEMPO 2219/2222 5SM TSRA BKN025CB
     FM230000 15015KT 2SM BR OVC025=



000
FTUS45 KCYS 220526
TAFRWL
TAF
KRWL 220526Z 2206/2306 05006KT P6SM OVC035
      TEMPO 2206/2209 2SM RA BR OVC015
     FM220900 05005KT 1SM -RA BR OVC015
     FM221500 19010KT P6SM OVC050
     FM222000 23013G24KT P6SM BKN060
      TEMPO 2220/2224 4SM TSRA OVC040CB
     FM230000 25008KT P6SM OVC025=



000
FTUS45 KCYS 220526
TAFCYS
TAF
KCYS 220526Z 2206/2306 15013G23KT P6SM OVC004
     FM220800 15011KT 3/4SM BR OVC004
     FM221100 13010KT 1SM -RA BR OVC005
     FM221800 13011KT 4SM -RA BR OVC015
     FM230100 15010KT 1SM BR OVC008=



000
FTUS45 KCYS 220526
TAFLAR
TAF
KLAR 220526Z 2206/2306 15018G28KT P6SM OVC060
     FM220800 16020KT 3SM -RA BR OVC015
     FM221100 15010KT 1SM -RA BR OVC008
     FM221800 16013KT P6SM BKN050
      TEMPO 2219/2222 5SM TSRA BKN025CB
     FM230000 15015KT 2SM BR OVC025=



000
FTUS45 KCYS 220526
TAFCYS
TAF
KCYS 220526Z 2206/2306 15013G23KT P6SM OVC004
     FM220800 15011KT 3/4SM BR OVC004
     FM221100 13010KT 1SM -RA BR OVC005
     FM221800 13011KT 4SM -RA BR OVC015
     FM230100 15010KT 1SM BR OVC008=



000
FTUS45 KCYS 220526
TAFLAR
TAF
KLAR 220526Z 2206/2306 15018G28KT P6SM OVC060
     FM220800 16020KT 3SM -RA BR OVC015
     FM221100 15010KT 1SM -RA BR OVC008
     FM221800 16013KT P6SM BKN050
      TEMPO 2219/2222 5SM TSRA BKN025CB
     FM230000 15015KT 2SM BR OVC025=



000
FTUS45 KCYS 220526
TAFRWL
TAF
KRWL 220526Z 2206/2306 05006KT P6SM OVC035
      TEMPO 2206/2209 2SM RA BR OVC015
     FM220900 05005KT 1SM -RA BR OVC015
     FM221500 19010KT P6SM OVC050
     FM222000 23013G24KT P6SM BKN060
      TEMPO 2220/2224 4SM TSRA OVC040CB
     FM230000 25008KT P6SM OVC025=



000
FTUS45 KCYS 220459 AAC
TAFCYS
TAF AMD
KCYS 220459Z 2205/2224 15015KT P6SM OVC005
     FM220600 16009KT 5SM -SHRA OVC008
     FM220900 14009KT 3SM -RA BR OVC005
     FM221900 13009KT P6SM SHRA SCT012 OVC020=



000
FTUS45 KCYS 220459 AAC
TAFCYS
TAF AMD
KCYS 220459Z 2205/2224 15015KT P6SM OVC005
     FM220600 16009KT 5SM -SHRA OVC008
     FM220900 14009KT 3SM -RA BR OVC005
     FM221900 13009KT P6SM SHRA SCT012 OVC020=



000
FTUS45 KCYS 220459 AAC
TAFCYS
TAF AMD
KCYS 220459Z 2205/2224 15015KT P6SM OVC005
     FM220600 16009KT 5SM -SHRA OVC008
     FM220900 14009KT 3SM -RA BR OVC005
     FM221900 13009KT P6SM SHRA SCT012 OVC020=



000
FTUS45 KCYS 220459 AAC
TAFCYS
TAF AMD
KCYS 220459Z 2205/2224 15015KT P6SM OVC005
     FM220600 16009KT 5SM -SHRA OVC008
     FM220900 14009KT 3SM -RA BR OVC005
     FM221900 13009KT P6SM SHRA SCT012 OVC020=



000
FTUS45 KCYS 220208 AAB
TAFCYS
TAF AMD
KCYS 220208Z 2202/2224 14012G20KT P6SM BKN015
     FM220600 16009KT 5SM -SHRA OVC008
     FM220900 14009KT 3SM -RA BR OVC005
     FM221900 13009KT P6SM SHRA SCT012 OVC020=



000
FTUS45 KCYS 220208 AAB
TAFCYS
TAF AMD
KCYS 220208Z 2202/2224 14012G20KT P6SM BKN015
     FM220600 16009KT 5SM -SHRA OVC008
     FM220900 14009KT 3SM -RA BR OVC005
     FM221900 13009KT P6SM SHRA SCT012 OVC020=



000
FTUS45 KCYS 220206 AAA
TAFLAR
TAF AMD
KLAR 220206Z 2202/2224 15013KT P6SM VCSH BKN015
     FM220900 15010KT 4SM -RA OVC015
     FM221100 16009KT 2SM -RA BR OVC009
     FM221600 18010KT 4SM -SHRA OVC015=



000
FTUS45 KCYS 220206 AAA
TAFLAR
TAF AMD
KLAR 220206Z 2202/2224 15013KT P6SM VCSH BKN015
     FM220900 15010KT 4SM -RA OVC015
     FM221100 16009KT 2SM -RA BR OVC009
     FM221600 18010KT 4SM -SHRA OVC015=



000
FTUS45 KCYS 212331
TAFLAR
TAF
KLAR 212331Z 2200/2224 15013KT P6SM VCSH SCT025 OVC040
     FM220600 15015KT P6SM VCSH SCT015 OVC025
     FM220900 15010KT 4SM -RA OVC015
     FM221100 16009KT 2SM -RA BR OVC009
     FM221600 18010KT 4SM -SHRA OVC015=



000
FTUS45 KCYS 212331
TAFCYS
TAF
KCYS 212331Z 2200/2224 17009KT P6SM VCSH SCT015 OVC025
     FM220600 16009KT 5SM -SHRA OVC008
     FM220900 14009KT 3SM -RA BR OVC005
     FM221900 13009KT P6SM SHRA SCT012 OVC020=



000
FTUS45 KCYS 212331
TAFLAR
TAF
KLAR 212331Z 2200/2224 15013KT P6SM VCSH SCT025 OVC040
     FM220600 15015KT P6SM VCSH SCT015 OVC025
     FM220900 15010KT 4SM -RA OVC015
     FM221100 16009KT 2SM -RA BR OVC009
     FM221600 18010KT 4SM -SHRA OVC015=



000
FTUS45 KCYS 212331
TAFRWL
TAF
KRWL 212331Z 2200/2224 05016KT P6SM VCTS BKN040CB
     FM220200 11008KT P6SM SCT040 BKN080
     FM221200 09009KT P6SM -SHRA OVC015
     FM221800 24014G24KT P6SM -SHRA SCT020 BKN030=



000
FTUS45 KCYS 212331
TAFCYS
TAF
KCYS 212331Z 2200/2224 17009KT P6SM VCSH SCT015 OVC025
     FM220600 16009KT 5SM -SHRA OVC008
     FM220900 14009KT 3SM -RA BR OVC005
     FM221900 13009KT P6SM SHRA SCT012 OVC020=



000
FTUS45 KCYS 212331
TAFRWL
TAF
KRWL 212331Z 2200/2224 05016KT P6SM VCTS BKN040CB
     FM220200 11008KT P6SM SCT040 BKN080
     FM221200 09009KT P6SM -SHRA OVC015
     FM221800 24014G24KT P6SM -SHRA SCT020 BKN030=



000
FTUS45 KCYS 212331
TAFLAR
TAF
KLAR 212331Z 2200/2224 15013KT P6SM VCSH SCT025 OVC040
     FM220600 15015KT P6SM VCSH SCT015 OVC025
     FM220900 15010KT 4SM -RA OVC015
     FM221100 16009KT 2SM -RA BR OVC009
     FM221600 18010KT 4SM -SHRA OVC015=



000
FTUS45 KCYS 212331
TAFRWL
TAF
KRWL 212331Z 2200/2224 05016KT P6SM VCTS BKN040CB
     FM220200 11008KT P6SM SCT040 BKN080
     FM221200 09009KT P6SM -SHRA OVC015
     FM221800 24014G24KT P6SM -SHRA SCT020 BKN030=



000
FTUS45 KCYS 212331
TAFCYS
TAF
KCYS 212331Z 2200/2224 17009KT P6SM VCSH SCT015 OVC025
     FM220600 16009KT 5SM -SHRA OVC008
     FM220900 14009KT 3SM -RA BR OVC005
     FM221900 13009KT P6SM SHRA SCT012 OVC020=



000
FTUS45 KCYS 212331
TAFRWL
TAF
KRWL 212331Z 2200/2224 05016KT P6SM VCTS BKN040CB
     FM220200 11008KT P6SM SCT040 BKN080
     FM221200 09009KT P6SM -SHRA OVC015
     FM221800 24014G24KT P6SM -SHRA SCT020 BKN030=



000
FTUS45 KCYS 212331
TAFCYS
TAF
KCYS 212331Z 2200/2224 17009KT P6SM VCSH SCT015 OVC025
     FM220600 16009KT 5SM -SHRA OVC008
     FM220900 14009KT 3SM -RA BR OVC005
     FM221900 13009KT P6SM SHRA SCT012 OVC020=



000
FTUS45 KCYS 212331
TAFLAR
TAF
KLAR 212331Z 2200/2224 15013KT P6SM VCSH SCT025 OVC040
     FM220600 15015KT P6SM VCSH SCT015 OVC025
     FM220900 15010KT 4SM -RA OVC015
     FM221100 16009KT 2SM -RA BR OVC009
     FM221600 18010KT 4SM -SHRA OVC015=



000
FTUS45 KCYS 212116 AAA
TAFCYS
TAF AMD
KCYS 212116Z 2121/2218 17013KT P6SM VCSH OVC015
     FM220300 15013KT 5SM -SHRA OVC008
     FM220900 14009KT 3SM -RA OVC005=



000
FTUS45 KCYS 212116 AAA
TAFCYS
TAF AMD
KCYS 212116Z 2121/2218 17013KT P6SM VCSH OVC015
     FM220300 15013KT 5SM -SHRA OVC008
     FM220900 14009KT 3SM -RA OVC005=



000
FTUS45 KCYS 211740
TAFRWL
TAF
KRWL 211740Z 2118/2218 11005KT P6SM SCT030
      TEMPO 2120/2124 5SM -TSRA BKN035CB
     FM220000 09010KT P6SM VCSH BKN040
     FM221200 09009KT P6SM -SHRA OVC015=



000
FTUS45 KCYS 211740
TAFLAR
TAF
KLAR 211740Z 2118/2218 15010KT P6SM SCT030
      TEMPO 2121/2124 5SM -TSRA BKN025CB
     FM220000 15013KT P6SM VCSH BKN025
     FM220900 15010KT 4SM -RA OVC015=



000
FTUS45 KCYS 211740
TAFRWL
TAF
KRWL 211740Z 2118/2218 11005KT P6SM SCT030
      TEMPO 2120/2124 5SM -TSRA BKN035CB
     FM220000 09010KT P6SM VCSH BKN040
     FM221200 09009KT P6SM -SHRA OVC015=



000
FTUS45 KCYS 211740
TAFLAR
TAF
KLAR 211740Z 2118/2218 15010KT P6SM SCT030
      TEMPO 2121/2124 5SM -TSRA BKN025CB
     FM220000 15013KT P6SM VCSH BKN025
     FM220900 15010KT 4SM -RA OVC015=



000
FTUS45 KCYS 211740
TAFCYS
TAF
KCYS 211740Z 2118/2218 17012KT P6SM OVC008
     FM212000 17013KT P6SM VCSH SCT015 BKN040
     FM220300 15013KT 5SM -SHRA OVC008
     FM220900 14009KT 3SM -RA OVC005=



000
FTUS45 KCYS 211740
TAFCYS
TAF
KCYS 211740Z 2118/2218 17012KT P6SM OVC008
     FM212000 17013KT P6SM VCSH SCT015 BKN040
     FM220300 15013KT 5SM -SHRA OVC008
     FM220900 14009KT 3SM -RA OVC005=



000
FTUS45 KCYS 211542 AAC
TAFCYS
TAF AMD
KCYS 211542Z 2116/2212 16013KT P6SM BKN008 OVC015
     FM211800 16013G24KT P6SM BKN040
     FM220000 14013KT 4SM -SHRA BKN040
     FM220300 15013KT 1SM BR OVC015
     FM220600 14009KT 1/2SM FG VV003
      TEMPO 2206/2209 5SM -RA BR BKN015=



000
FTUS45 KCYS 211542 AAC
TAFCYS
TAF AMD
KCYS 211542Z 2116/2212 16013KT P6SM BKN008 OVC015
     FM211800 16013G24KT P6SM BKN040
     FM220000 14013KT 4SM -SHRA BKN040
     FM220300 15013KT 1SM BR OVC015
     FM220600 14009KT 1/2SM FG VV003
      TEMPO 2206/2209 5SM -RA BR BKN015=



000
FTUS45 KCYS 211542 AAC
TAFCYS
TAF AMD
KCYS 211542Z 2116/2212 16013KT P6SM BKN008 OVC015
     FM211800 16013G24KT P6SM BKN040
     FM220000 14013KT 4SM -SHRA BKN040
     FM220300 15013KT 1SM BR OVC015
     FM220600 14009KT 1/2SM FG VV003
      TEMPO 2206/2209 5SM -RA BR BKN015=



000
FTUS45 KCYS 211542 AAC
TAFCYS
TAF AMD
KCYS 211542Z 2116/2212 16013KT P6SM BKN008 OVC015
     FM211800 16013G24KT P6SM BKN040
     FM220000 14013KT 4SM -SHRA BKN040
     FM220300 15013KT 1SM BR OVC015
     FM220600 14009KT 1/2SM FG VV003
      TEMPO 2206/2209 5SM -RA BR BKN015=



000
FTUS45 KCYS 211327 AAB
TAFLAR
TAF AMD
KLAR 211327Z 2113/2212 15015KT P6SM SCT004
     FM211900 15017G29KT P6SM BKN050
      TEMPO 2120/2124 5SM -TSRA BKN025CB
     FM220000 15020KT 4SM -SHRA BKN025
     FM220300 15012KT P6SM VCSH BKN035=



000
FTUS45 KCYS 211327 AAB
TAFLAR
TAF AMD
KLAR 211327Z 2113/2212 15015KT P6SM SCT004
     FM211900 15017G29KT P6SM BKN050
      TEMPO 2120/2124 5SM -TSRA BKN025CB
     FM220000 15020KT 4SM -SHRA BKN025
     FM220300 15012KT P6SM VCSH BKN035=



000
FTUS45 KCYS 211327 AAB
TAFLAR
TAF AMD
KLAR 211327Z 2113/2212 15015KT P6SM SCT004
     FM211900 15017G29KT P6SM BKN050
      TEMPO 2120/2124 5SM -TSRA BKN025CB
     FM220000 15020KT 4SM -SHRA BKN025
     FM220300 15012KT P6SM VCSH BKN035=



000
FTUS45 KCYS 211327 AAB
TAFLAR
TAF AMD
KLAR 211327Z 2113/2212 15015KT P6SM SCT004
     FM211900 15017G29KT P6SM BKN050
      TEMPO 2120/2124 5SM -TSRA BKN025CB
     FM220000 15020KT 4SM -SHRA BKN025
     FM220300 15012KT P6SM VCSH BKN035=



000
FTUS45 KCYS 211309 AAB
TAFCYS
TAF AMD
KCYS 211309Z 2113/2212 17009KT 1/4SM FG OVC002
     FM211600 16013KT 1SM BR OVC004
     FM211800 16013G24KT P6SM BKN040
     FM220000 14013KT 4SM -SHRA BKN040
     FM220300 15013KT 1SM BR OVC015
     FM220600 14009KT 1/2SM FG VV003
      TEMPO 2206/2209 5SM -RA BR BKN015=



000
FTUS45 KCYS 211309 AAA
TAFLAR
TAF AMD
KLAR 211309Z 2113/2212 15015KT P6SM OVC005
     FM211500 16014KT P6SM SCT007
     FM211900 15017G29KT P6SM BKN050
      TEMPO 2120/2124 5SM -TSRA BKN025CB
     FM220000 15020KT 4SM -SHRA BKN025
     FM220300 15012KT P6SM VCSH BKN035=



000
FTUS45 KCYS 211309 AAA
TAFLAR
TAF AMD
KLAR 211309Z 2113/2212 15015KT P6SM OVC005
     FM211500 16014KT P6SM SCT007
     FM211900 15017G29KT P6SM BKN050
      TEMPO 2120/2124 5SM -TSRA BKN025CB
     FM220000 15020KT 4SM -SHRA BKN025
     FM220300 15012KT P6SM VCSH BKN035=



000
FTUS45 KCYS 211309 AAB
TAFCYS
TAF AMD
KCYS 211309Z 2113/2212 17009KT 1/4SM FG OVC002
     FM211600 16013KT 1SM BR OVC004
     FM211800 16013G24KT P6SM BKN040
     FM220000 14013KT 4SM -SHRA BKN040
     FM220300 15013KT 1SM BR OVC015
     FM220600 14009KT 1/2SM FG VV003
      TEMPO 2206/2209 5SM -RA BR BKN015=



000
FTUS45 KCYS 211305 AAA
TAFRWL
TAF AMD
KRWL 211305Z 2113/2212 06005KT P6SM OVC008
     FM211500 07005KT P6SM BKN040
     FM211900 16011KT P6SM BKN060
      TEMPO 2120/2124 5SM -TSRA BKN035CB
     FM220000 09010KT P6SM VCSH BKN040
     FM220300 09009KT 2SM BR OVC015=



000
FTUS45 KCYS 211120
TAFRWL
TAF
KRWL 211120Z 2112/2212 06011KT P6SM OVC007
      TEMPO 2112/2114 4SM BR OVC012
     FM211400 09007KT P6SM BKN040
     FM211900 16011KT P6SM BKN060
      TEMPO 2120/2124 5SM -TSRA BKN035CB
     FM220000 09010KT P6SM VCSH BKN040
     FM220300 09009KT 2SM BR OVC015=



000
FTUS45 KCYS 211120
TAFLAR
TAF
KLAR 211120Z 2112/2212 15015KT 5SM BR OVC005
      TEMPO 2112/2115 4SM BR OVC012
     FM211500 16014KT P6SM BKN025
     FM211900 15017G29KT P6SM BKN050
      TEMPO 2120/2124 5SM -TSRA BKN025CB
     FM220000 15020KT 4SM -SHRA BKN025
     FM220300 15012KT P6SM VCSH BKN035=



000
FTUS45 KCYS 211120
TAFRWL
TAF
KRWL 211120Z 2112/2212 06011KT P6SM OVC007
      TEMPO 2112/2114 4SM BR OVC012
     FM211400 09007KT P6SM BKN040
     FM211900 16011KT P6SM BKN060
      TEMPO 2120/2124 5SM -TSRA BKN035CB
     FM220000 09010KT P6SM VCSH BKN040
     FM220300 09009KT 2SM BR OVC015=



000
FTUS45 KCYS 211120
TAFLAR
TAF
KLAR 211120Z 2112/2212 15015KT 5SM BR OVC005
      TEMPO 2112/2115 4SM BR OVC012
     FM211500 16014KT P6SM BKN025
     FM211900 15017G29KT P6SM BKN050
      TEMPO 2120/2124 5SM -TSRA BKN025CB
     FM220000 15020KT 4SM -SHRA BKN025
     FM220300 15012KT P6SM VCSH BKN035=



000
FTUS45 KCYS 211120
TAFCYS
TAF
KCYS 211120Z 2112/2212 16012KT 1/4SM FG OVC002
      TEMPO 2112/2116 2SM BR OVC007
     FM211600 16013KT P6SM BKN025
     FM211800 16013G24KT P6SM BKN040
     FM220000 14013KT 4SM -SHRA BKN040
     FM220300 15013KT 1SM BR OVC015
     FM220600 14009KT 1/2SM FG VV003
      TEMPO 2206/2209 5SM -RA BR BKN015=



000
FTUS45 KCYS 211120
TAFCYS
TAF
KCYS 211120Z 2112/2212 16012KT 1/4SM FG OVC002
      TEMPO 2112/2116 2SM BR OVC007
     FM211600 16013KT P6SM BKN025
     FM211800 16013G24KT P6SM BKN040
     FM220000 14013KT 4SM -SHRA BKN040
     FM220300 15013KT 1SM BR OVC015
     FM220600 14009KT 1/2SM FG VV003
      TEMPO 2206/2209 5SM -RA BR BKN015=



000
FTUS45 KCYS 211120
TAFCYS
TAF
KCYS 211120Z 2112/2212 16012KT 1/4SM FG OVC002
      TEMPO 2112/2116 2SM BR OVC007
     FM211600 16013KT P6SM BKN025
     FM211800 16013G24KT P6SM BKN040
     FM220000 14013KT 4SM -SHRA BKN040
     FM220300 15013KT 1SM BR OVC015
     FM220600 14009KT 1/2SM FG VV003
      TEMPO 2206/2209 5SM -RA BR BKN015=



000
FTUS45 KCYS 211120
TAFRWL
TAF
KRWL 211120Z 2112/2212 06011KT P6SM OVC007
      TEMPO 2112/2114 4SM BR OVC012
     FM211400 09007KT P6SM BKN040
     FM211900 16011KT P6SM BKN060
      TEMPO 2120/2124 5SM -TSRA BKN035CB
     FM220000 09010KT P6SM VCSH BKN040
     FM220300 09009KT 2SM BR OVC015=



000
FTUS45 KCYS 211120
TAFLAR
TAF
KLAR 211120Z 2112/2212 15015KT 5SM BR OVC005
      TEMPO 2112/2115 4SM BR OVC012
     FM211500 16014KT P6SM BKN025
     FM211900 15017G29KT P6SM BKN050
      TEMPO 2120/2124 5SM -TSRA BKN025CB
     FM220000 15020KT 4SM -SHRA BKN025
     FM220300 15012KT P6SM VCSH BKN035=



000
FTUS45 KCYS 211120
TAFLAR
TAF
KLAR 211120Z 2112/2212 15015KT 5SM BR OVC005
      TEMPO 2112/2115 4SM BR OVC012
     FM211500 16014KT P6SM BKN025
     FM211900 15017G29KT P6SM BKN050
      TEMPO 2120/2124 5SM -TSRA BKN025CB
     FM220000 15020KT 4SM -SHRA BKN025
     FM220300 15012KT P6SM VCSH BKN035=



000
FTUS45 KCYS 211120
TAFRWL
TAF
KRWL 211120Z 2112/2212 06011KT P6SM OVC007
      TEMPO 2112/2114 4SM BR OVC012
     FM211400 09007KT P6SM BKN040
     FM211900 16011KT P6SM BKN060
      TEMPO 2120/2124 5SM -TSRA BKN035CB
     FM220000 09010KT P6SM VCSH BKN040
     FM220300 09009KT 2SM BR OVC015=



000
FTUS45 KCYS 211120
TAFCYS
TAF
KCYS 211120Z 2112/2212 16012KT 1/4SM FG OVC002
      TEMPO 2112/2116 2SM BR OVC007
     FM211600 16013KT P6SM BKN025
     FM211800 16013G24KT P6SM BKN040
     FM220000 14013KT 4SM -SHRA BKN040
     FM220300 15013KT 1SM BR OVC015
     FM220600 14009KT 1/2SM FG VV003
      TEMPO 2206/2209 5SM -RA BR BKN015=



000
FTUS45 KCYS 211028 AAA
TAFRWL
TAF AMD
KRWL 211028Z 2110/2206 06011KT P6SM OVC009
     FM211400 09007KT P6SM BKN040
     FM211900 16011KT P6SM BKN060
      TEMPO 2120/2124 5SM -TSRA BKN035CB
     FM220000 09010KT P6SM VCSH BKN040=



000
FTUS45 KCYS 211028 AAA
TAFRWL
TAF AMD
KRWL 211028Z 2110/2206 06011KT P6SM OVC009
     FM211400 09007KT P6SM BKN040
     FM211900 16011KT P6SM BKN060
      TEMPO 2120/2124 5SM -TSRA BKN035CB
     FM220000 09010KT P6SM VCSH BKN040=



    US Dept of Commerce
    National Oceanic and Atmospheric Administration
    National Weather Service
    1325 East West Highway
    Silver Spring, MD 20910
    Page Author: NWS Internet Services Team
Disclaimer
Information Quality
Credits
Glossary
Privacy Policy
Freedom of Information Act (FOIA)
About Us
Career Opportunities